sensor_id;sensor_type;location;lat;lon;timestamp;pressure;altitude;pressure_sealevel;temperature;humidity
85119;BME280;75469;47.654;10.494;2024-01-07T00:01:00;90702.31;;;-0.17;85.00
85119;BME280;75469;47.654;10.494;2024-01-07T00:03:25;90710.75;;;-0.20;85.24
85119;BME280;75469;47.654;10.494;2024-01-07T00:05:51;90713.13;;;-0.28;85.47
85119;BME280;75469;47.654;10.494;2024-01-07T00:08:16;90701.56;;;-0.18;84.86
85119;BME280;75469;47.654;10.494;2024-01-07T00:10:42;90708.25;;;-0.17;85.02
85119;BME280;75469;47.654;10.494;2024-01-07T00:13:07;90705.31;;;-0.40;86.38
85119;BME280;75469;47.654;10.494;2024-01-07T00:15:33;90708.25;;;-0.29;85.68
85119;BME280;75469;47.654;10.494;2024-01-07T00:17:58;90702.41;;;-0.26;85.55
85119;BME280;75469;47.654;10.494;2024-01-07T00:20:23;90711.25;;;-0.39;85.71
85119;BME280;75469;47.654;10.494;2024-01-07T00:22:49;90696.88;;;-0.25;85.81
85119;BME280;75469;47.654;10.494;2024-01-07T00:25:14;90709.09;;;-0.37;86.16
85119;BME280;75469;47.654;10.494;2024-01-07T00:27:40;90704.34;;;-0.48;85.96
85119;BME280;75469;47.654;10.494;2024-01-07T00:30:06;90701.41;;;-0.46;86.51
85119;BME280;75469;47.654;10.494;2024-01-07T00:32:31;90696.66;;;-0.44;86.59
85119;BME280;75469;47.654;10.494;2024-01-07T00:34:56;90700.00;;;-0.31;86.08
85119;BME280;75469;47.654;10.494;2024-01-07T00:37:22;90705.94;;;-0.43;85.97
85119;BME280;75469;47.654;10.494;2024-01-07T00:39:47;90701.19;;;-0.41;86.06
85119;BME280;75469;47.654;10.494;2024-01-07T00:42:13;90706.41;;;-0.41;86.72
85119;BME280;75469;47.654;10.494;2024-01-07T00:44:38;90710.97;;;-0.26;85.95
85119;BME280;75469;47.654;10.494;2024-01-07T00:47:04;90704.56;;;-0.28;85.57
85119;BME280;75469;47.654;10.494;2024-01-07T00:49:29;90710.31;;;-0.35;85.35
85119;BME280;75469;47.654;10.494;2024-01-07T00:51:55;90700.22;;;-0.36;85.79
85119;BME280;75469;47.654;10.494;2024-01-07T00:54:21;90699.69;;;-0.42;85.96
85119;BME280;75469;47.654;10.494;2024-01-07T00:56:46;90712.44;;;-0.37;86.24
85119;BME280;75469;47.654;10.494;2024-01-07T00:59:11;90706.53;;;-0.25;85.13
85119;BME280;75469;47.654;10.494;2024-01-07T01:01:37;90698.06;;;-0.34;85.24
85119;BME280;75469;47.654;10.494;2024-01-07T01:04:02;90709.75;;;-0.40;85.48
85119;BME280;75469;47.654;10.494;2024-01-07T01:06:28;90716.03;;;-0.41;85.99
85119;BME280;75469;47.654;10.494;2024-01-07T01:08:53;90713.53;;;-0.38;85.82
85119;BME280;75469;47.654;10.494;2024-01-07T01:11:19;90715.94;;;-0.33;85.48
85119;BME280;75469;47.654;10.494;2024-01-07T01:13:44;90714.84;;;-0.44;86.18
85119;BME280;75469;47.654;10.494;2024-01-07T01:16:09;90714.84;;;-0.44;86.33
85119;BME280;75469;47.654;10.494;2024-01-07T01:18:35;90715.06;;;-0.37;86.12
85119;BME280;75469;47.654;10.494;2024-01-07T01:21:00;90710.75;;;-0.33;86.29
85119;BME280;75469;47.654;10.494;2024-01-07T01:23:26;90712.25;;;-0.32;85.68
85119;BME280;75469;47.654;10.494;2024-01-07T01:25:51;90719.41;;;-0.29;85.49
85119;BME280;75469;47.654;10.494;2024-01-07T01:28:16;90720.16;;;-0.28;85.66
85119;BME280;75469;47.654;10.494;2024-01-07T01:30:42;90722.00;;;-0.29;85.55
85119;BME280;75469;47.654;10.494;2024-01-07T01:33:07;90725.78;;;-0.26;85.73
85119;BME280;75469;47.654;10.494;2024-01-07T01:35:33;90720.59;;;-0.38;86.02
85119;BME280;75469;47.654;10.494;2024-01-07T01:37:58;90728.94;;;-0.33;86.15
85119;BME280;75469;47.654;10.494;2024-01-07T01:40:24;90724.03;;;-0.34;86.28
85119;BME280;75469;47.654;10.494;2024-01-07T01:42:49;90726.66;;;-0.22;86.40
85119;BME280;75469;47.654;10.494;2024-01-07T01:45:15;90722.84;;;-0.25;85.92
85119;BME280;75469;47.654;10.494;2024-01-07T01:47:40;90721.34;;;-0.26;85.86
85119;BME280;75469;47.654;10.494;2024-01-07T01:50:08;90721.34;;;-0.26;85.97
85119;BME280;75469;47.654;10.494;2024-01-07T01:52:35;90723.41;;;-0.19;85.92
85119;BME280;75469;47.654;10.494;2024-01-07T01:55:01;90722.56;;;-0.23;85.71
85119;BME280;75469;47.654;10.494;2024-01-07T01:57:32;90724.59;;;-0.29;85.83
85119;BME280;75469;47.654;10.494;2024-01-07T02:00:02;90717.91;;;-0.17;85.93
85119;BME280;75469;47.654;10.494;2024-01-07T02:02:30;90715.53;;;-0.10;85.64
85119;BME280;75469;47.654;10.494;2024-01-07T02:04:57;90713.47;;;-0.05;85.23
85119;BME280;75469;47.654;10.494;2024-01-07T02:07:24;90717.91;;;-0.05;85.15
85119;BME280;75469;47.654;10.494;2024-01-07T02:09:49;90717.47;;;-0.07;85.81
85119;BME280;75469;47.654;10.494;2024-01-07T02:12:15;90719.22;;;0.13;85.04
85119;BME280;75469;47.654;10.494;2024-01-07T02:14:40;90714.22;;;0.08;84.27
85119;BME280;75469;47.654;10.494;2024-01-07T02:17:06;90716.16;;;-0.26;85.34
85119;BME280;75469;47.654;10.494;2024-01-07T02:19:32;90723.97;;;-0.13;85.07
85119;BME280;75469;47.654;10.494;2024-01-07T02:21:57;90721.25;;;-0.17;85.78
85119;BME280;75469;47.654;10.494;2024-01-07T02:24:23;90718.66;;;-0.05;85.69
85119;BME280;75469;47.654;10.494;2024-01-07T02:26:48;90726.91;;;-0.15;85.59
85119;BME280;75469;47.654;10.494;2024-01-07T02:29:13;90725.25;;;-0.32;86.27
85119;BME280;75469;47.654;10.494;2024-01-07T02:31:39;90723.31;;;-0.10;85.67
85119;BME280;75469;47.654;10.494;2024-01-07T02:34:04;90719.63;;;-0.21;85.28
85119;BME280;75469;47.654;10.494;2024-01-07T02:36:30;90724.41;;;-0.24;85.74
85119;BME280;75469;47.654;10.494;2024-01-07T02:38:55;90722.00;;;-0.16;85.97
85119;BME280;75469;47.654;10.494;2024-01-07T02:41:20;90721.91;;;-0.20;85.96
85119;BME280;75469;47.654;10.494;2024-01-07T02:43:50;90721.38;;;-0.13;85.63
85119;BME280;75469;47.654;10.494;2024-01-07T02:46:16;90717.03;;;-0.09;85.86
85119;BME280;75469;47.654;10.494;2024-01-07T02:48:41;90711.53;;;-0.08;85.65
85119;BME280;75469;47.654;10.494;2024-01-07T02:51:08;90714.22;;;-0.04;85.98
85119;BME280;75469;47.654;10.494;2024-01-07T02:53:33;90710.88;;;-0.05;85.66
85119;BME280;75469;47.654;10.494;2024-01-07T02:55:59;90714.78;;;0.02;85.50
85119;BME280;75469;47.654;10.494;2024-01-07T02:58:25;90716.28;;;0.03;84.97
85119;BME280;75469;47.654;10.494;2024-01-07T03:00:50;90712.94;;;0.02;85.05
85119;BME280;75469;47.654;10.494;2024-01-07T03:03:16;90718.56;;;-0.08;85.03
85119;BME280;75469;47.654;10.494;2024-01-07T03:05:41;90712.63;;;-0.09;85.01
85119;BME280;75469;47.654;10.494;2024-01-07T03:08:07;90719.22;;;-0.11;85.51
85119;BME280;75469;47.654;10.494;2024-01-07T03:10:33;90717.56;;;-0.04;85.20
85119;BME280;75469;47.654;10.494;2024-01-07T03:12:58;90709.56;;;-0.11;85.16
85119;BME280;75469;47.654;10.494;2024-01-07T03:15:23;90711.19;;;-0.06;85.13
85119;BME280;75469;47.654;10.494;2024-01-07T03:17:49;90708.81;;;-0.11;84.97
85119;BME280;75469;47.654;10.494;2024-01-07T03:20:14;90714.75;;;-0.11;85.21
85119;BME280;75469;47.654;10.494;2024-01-07T03:22:40;90710.88;;;-0.05;85.51
85119;BME280;75469;47.654;10.494;2024-01-07T03:25:06;90719.13;;;-0.03;85.36
85119;BME280;75469;47.654;10.494;2024-01-07T03:27:31;90714.31;;;-0.01;85.38
85119;BME280;75469;47.654;10.494;2024-01-07T03:29:57;90708.72;;;-0.03;85.29
85119;BME280;75469;47.654;10.494;2024-01-07T03:32:22;90717.72;;;0.00;85.13
85119;BME280;75469;47.654;10.494;2024-01-07T03:34:47;90714.00;;;0.01;85.09
85119;BME280;75469;47.654;10.494;2024-01-07T03:37:13;90717.56;;;-0.04;85.12
85119;BME280;75469;47.654;10.494;2024-01-07T03:39:38;90718.31;;;-0.03;85.12
85119;BME280;75469;47.654;10.494;2024-01-07T03:42:04;90717.25;;;-0.02;84.90
85119;BME280;75469;47.654;10.494;2024-01-07T03:44:36;90721.56;;;-0.06;85.00
85119;BME280;75469;47.654;10.494;2024-01-07T03:47:01;90723.88;;;-0.05;84.96
85119;BME280;75469;47.654;10.494;2024-01-07T03:49:27;90711.06;;;0.03;85.12
85119;BME280;75469;47.654;10.494;2024-01-07T03:51:52;90723.31;;;0.02;84.73
85119;BME280;75469;47.654;10.494;2024-01-07T03:54:17;90721.47;;;0.03;84.99
85119;BME280;75469;47.654;10.494;2024-01-07T03:56:43;90723.66;;;0.01;84.85
85119;BME280;75469;47.654;10.494;2024-01-07T03:59:08;90722.56;;;0.02;84.94
85119;BME280;75469;47.654;10.494;2024-01-07T04:01:34;90722.13;;;-0.01;85.33
85119;BME280;75469;47.654;10.494;2024-01-07T04:03:59;90727.47;;;0.03;85.02
85119;BME280;75469;47.654;10.494;2024-01-07T04:06:24;90726.25;;;0.01;84.65
85119;BME280;75469;47.654;10.494;2024-01-07T04:08:50;90732.97;;;0.02;84.64
85119;BME280;75469;47.654;10.494;2024-01-07T04:11:15;90725.16;;;0.02;84.71
85119;BME280;75469;47.654;10.494;2024-01-07T04:13:41;90731.47;;;0.01;84.94
85119;BME280;75469;47.654;10.494;2024-01-07T04:16:15;90731.00;;;-0.02;84.60
85119;BME280;75469;47.654;10.494;2024-01-07T04:18:41;90730.72;;;0.00;84.89
85119;BME280;75469;47.654;10.494;2024-01-07T04:21:09;90735.91;;;0.00;85.09
85119;BME280;75469;47.654;10.494;2024-01-07T04:23:34;90729.41;;;0.06;84.87
85119;BME280;75469;47.654;10.494;2024-01-07T04:26:00;90732.31;;;0.05;84.73
85119;BME280;75469;47.654;10.494;2024-01-07T04:28:25;90733.81;;;0.06;84.75
85119;BME280;75469;47.654;10.494;2024-01-07T04:30:51;90736.56;;;0.09;84.97
85119;BME280;75469;47.654;10.494;2024-01-07T04:33:16;90733.19;;;0.09;84.79
85119;BME280;75469;47.654;10.494;2024-01-07T04:35:42;90742.50;;;0.34;84.63
85119;BME280;75469;47.654;10.494;2024-01-07T04:38:07;90735.91;;;0.37;83.26
85119;BME280;75469;47.654;10.494;2024-01-07T04:40:33;90733.41;;;0.28;84.09
85119;BME280;75469;47.654;10.494;2024-01-07T04:42:59;90739.81;;;0.31;84.09
85119;BME280;75469;47.654;10.494;2024-01-07T04:45:25;90741.84;;;0.25;84.04
85119;BME280;75469;47.654;10.494;2024-01-07T04:47:50;90739.16;;;0.21;84.06
85119;BME280;75469;47.654;10.494;2024-01-07T04:50:16;90746.41;;;0.16;84.01
85119;BME280;75469;47.654;10.494;2024-01-07T04:52:47;90738.91;;;0.14;84.39
85119;BME280;75469;47.654;10.494;2024-01-07T04:55:13;90752.47;;;0.08;84.27
85119;BME280;75469;47.654;10.494;2024-01-07T04:57:38;90749.00;;;0.04;84.30
85119;BME280;75469;47.654;10.494;2024-01-07T05:00:04;90755.81;;;0.08;84.56
85119;BME280;75469;47.654;10.494;2024-01-07T05:02:30;90750.97;;;0.07;84.68
85119;BME280;75469;47.654;10.494;2024-01-07T05:04:55;90753.88;;;0.05;84.72
85119;BME280;75469;47.654;10.494;2024-01-07T05:07:21;90756.91;;;0.07;84.88
85119;BME280;75469;47.654;10.494;2024-01-07T05:09:46;90757.22;;;0.06;84.59
85119;BME280;75469;47.654;10.494;2024-01-07T05:12:11;90761.25;;;0.03;84.86
85119;BME280;75469;47.654;10.494;2024-01-07T05:14:37;90760.91;;;0.05;84.83
85119;BME280;75469;47.654;10.494;2024-01-07T05:17:03;90761.44;;;-0.02;84.96
85119;BME280;75469;47.654;10.494;2024-01-07T05:19:28;90755.91;;;-0.01;85.05
85119;BME280;75469;47.654;10.494;2024-01-07T05:21:54;90754.22;;;0.04;85.09
85119;BME280;75469;47.654;10.494;2024-01-07T05:24:19;90761.56;;;0.02;85.23
85119;BME280;75469;47.654;10.494;2024-01-07T05:26:45;90762.00;;;0.04;84.33
85119;BME280;75469;47.654;10.494;2024-01-07T05:29:11;90759.31;;;0.00;84.88
85119;BME280;75469;47.654;10.494;2024-01-07T05:31:38;90761.66;;;-0.07;84.96
85119;BME280;75469;47.654;10.494;2024-01-07T05:34:03;90758.22;;;0.01;85.02
85119;BME280;75469;47.654;10.494;2024-01-07T05:36:29;90756.56;;;-0.04;85.11
85119;BME280;75469;47.654;10.494;2024-01-07T05:38:54;90757.00;;;-0.02;84.99
85119;BME280;75469;47.654;10.494;2024-01-07T05:41:19;90764.34;;;-0.04;85.22
85119;BME280;75469;47.654;10.494;2024-01-07T05:43:45;90753.56;;;-0.06;85.23
85119;BME280;75469;47.654;10.494;2024-01-07T05:46:10;90764.69;;;-0.05;85.28
85119;BME280;75469;47.654;10.494;2024-01-07T05:48:48;90764.28;;;0.05;84.84
85119;BME280;75469;47.654;10.494;2024-01-07T05:51:14;90770.44;;;0.01;84.99
85119;BME280;75469;47.654;10.494;2024-01-07T05:53:40;90762.53;;;-0.03;85.14
85119;BME280;75469;47.654;10.494;2024-01-07T05:56:06;90774.00;;;-0.04;85.15
85119;BME280;75469;47.654;10.494;2024-01-07T05:58:32;90775.97;;;-0.01;85.25
85119;BME280;75469;47.654;10.494;2024-01-07T06:00:57;90772.16;;;-0.04;85.29
85119;BME280;75469;47.654;10.494;2024-01-07T06:03:23;90774.75;;;-0.04;85.65
85119;BME280;75469;47.654;10.494;2024-01-07T06:05:48;90768.91;;;-0.01;85.07
85119;BME280;75469;47.654;10.494;2024-01-07T06:08:13;90775.50;;;-0.03;84.90
85119;BME280;75469;47.654;10.494;2024-01-07T06:10:39;90771.41;;;-0.04;85.03
85119;BME280;75469;47.654;10.494;2024-01-07T06:13:05;90776.41;;;0.01;85.18
85119;BME280;75469;47.654;10.494;2024-01-07T06:15:31;90776.41;;;0.01;84.88
85119;BME280;75469;47.654;10.494;2024-01-07T06:17:57;90771.84;;;-0.02;84.99
85119;BME280;75469;47.654;10.494;2024-01-07T06:20:23;90781.81;;;-0.04;85.03
85119;BME280;75469;47.654;10.494;2024-01-07T06:22:48;90781.34;;;-0.06;85.18
85119;BME280;75469;47.654;10.494;2024-01-07T06:25:14;90775.50;;;-0.03;85.03
85119;BME280;75469;47.654;10.494;2024-01-07T06:27:39;90787.53;;;-0.11;84.95
85119;BME280;75469;47.654;10.494;2024-01-07T06:30:06;90780.72;;;-0.03;85.57
85119;BME280;75469;47.654;10.494;2024-01-07T06:32:32;90777.50;;;0.00;85.10
85119;BME280;75469;47.654;10.494;2024-01-07T06:35:00;90784.50;;;-0.01;84.89
85119;BME280;75469;47.654;10.494;2024-01-07T06:37:26;90790.25;;;0.05;84.74
85119;BME280;75469;47.654;10.494;2024-01-07T06:39:54;90791.66;;;0.03;84.46
85119;BME280;75469;47.654;10.494;2024-01-07T06:42:19;90786.81;;;0.01;84.32
85119;BME280;75469;47.654;10.494;2024-01-07T06:44:45;90795.25;;;0.10;84.52
85119;BME280;75469;47.654;10.494;2024-01-07T06:47:10;90795.34;;;0.02;84.61
85119;BME280;75469;47.654;10.494;2024-01-07T06:49:36;90797.09;;;-0.03;84.99
85119;BME280;75469;47.654;10.494;2024-01-07T06:52:01;90789.03;;;-0.10;85.37
85119;BME280;75469;47.654;10.494;2024-01-07T06:54:27;90794.34;;;-0.06;85.44
85119;BME280;75469;47.654;10.494;2024-01-07T06:56:52;90798.56;;;-0.14;84.98
85119;BME280;75469;47.654;10.494;2024-01-07T06:59:17;90799.03;;;0.01;84.99
85119;BME280;75469;47.654;10.494;2024-01-07T07:01:43;90794.34;;;-0.06;84.88
85119;BME280;75469;47.654;10.494;2024-01-07T07:04:08;90799.47;;;0.03;84.85
85119;BME280;75469;47.654;10.494;2024-01-07T07:06:34;90807.06;;;0.08;84.22
85119;BME280;75469;47.654;10.494;2024-01-07T07:09:00;90806.97;;;0.41;84.45
85119;BME280;75469;47.654;10.494;2024-01-07T07:11:26;90804.81;;;0.18;83.71
85119;BME280;75469;47.654;10.494;2024-01-07T07:13:51;90809.84;;;0.03;84.00
85119;BME280;75469;47.654;10.494;2024-01-07T07:16:16;90809.72;;;-0.13;84.19
85119;BME280;75469;47.654;10.494;2024-01-07T07:18:42;90824.56;;;-0.14;85.11
85119;BME280;75469;47.654;10.494;2024-01-07T07:21:07;90818.94;;;-0.04;84.07
85119;BME280;75469;47.654;10.494;2024-01-07T07:23:33;90819.56;;;-0.19;84.64
85119;BME280;75469;47.654;10.494;2024-01-07T07:25:58;90821.81;;;-0.30;85.38
85119;BME280;75469;47.654;10.494;2024-01-07T07:28:24;90828.97;;;-0.27;84.94
85119;BME280;75469;47.654;10.494;2024-01-07T07:30:49;90829.34;;;-0.37;85.60
85119;BME280;75469;47.654;10.494;2024-01-07T07:33:15;90827.47;;;-0.49;86.58
85119;BME280;75469;47.654;10.494;2024-01-07T07:35:40;90831.31;;;-0.34;85.24
85119;BME280;75469;47.654;10.494;2024-01-07T07:38:07;90832.06;;;-0.33;85.61
85119;BME280;75469;47.654;10.494;2024-01-07T07:40:32;90834.56;;;-0.37;85.41
85119;BME280;75469;47.654;10.494;2024-01-07T07:42:58;90833.19;;;-0.22;85.50
85119;BME280;75469;47.654;10.494;2024-01-07T07:45:23;90837.41;;;-0.30;85.12
85119;BME280;75469;47.654;10.494;2024-01-07T07:47:49;90832.53;;;-0.31;85.74
85119;BME280;75469;47.654;10.494;2024-01-07T07:50:14;90834.47;;;-0.28;85.48
85119;BME280;75469;47.654;10.494;2024-01-07T07:52:43;90842.28;;;-0.28;85.08
85119;BME280;75469;47.654;10.494;2024-01-07T07:55:11;90845.16;;;-0.09;84.76
85119;BME280;75469;47.654;10.494;2024-01-07T07:57:36;90846.28;;;0.15;84.31
85119;BME280;75469;47.654;10.494;2024-01-07T08:00:06;90846.00;;;-0.17;84.94
85119;BME280;75469;47.654;10.494;2024-01-07T08:02:32;90851.34;;;-0.34;85.14
85119;BME280;75469;47.654;10.494;2024-01-07T08:04:58;90841.94;;;-0.39;85.24
85119;BME280;75469;47.654;10.494;2024-01-07T08:07:23;90842.59;;;-0.30;84.36
85119;BME280;75469;47.654;10.494;2024-01-07T08:09:49;90849.16;;;-0.44;85.59
85119;BME280;75469;47.654;10.494;2024-01-07T08:12:14;90851.09;;;-0.20;85.44
85119;BME280;75469;47.654;10.494;2024-01-07T08:14:40;90853.22;;;-0.22;85.10
85119;BME280;75469;47.654;10.494;2024-01-07T08:17:07;90856.03;;;-0.49;85.09
85119;BME280;75469;47.654;10.494;2024-01-07T08:19:32;90853.13;;;-0.47;84.80
85119;BME280;75469;47.654;10.494;2024-01-07T08:21:58;90860.94;;;-0.68;86.55
85119;BME280;75469;47.654;10.494;2024-01-07T08:24:24;90858.91;;;-0.62;85.77
85119;BME280;75469;47.654;10.494;2024-01-07T08:26:49;90868.78;;;-0.56;85.64
85119;BME280;75469;47.654;10.494;2024-01-07T08:29:14;90862.38;;;-0.37;84.68
85119;BME280;75469;47.654;10.494;2024-01-07T08:31:40;90873.47;;;-0.49;85.38
85119;BME280;75469;47.654;10.494;2024-01-07T08:34:07;90876.66;;;-0.64;86.29
85119;BME280;75469;47.654;10.494;2024-01-07T08:37:46;90875.44;;;-0.67;86.13
85119;BME280;75469;47.654;10.494;2024-01-07T08:40:12;90871.06;;;-0.54;85.56
85119;BME280;75469;47.654;10.494;2024-01-07T08:42:38;90881.78;;;-0.77;86.50
85119;BME280;75469;47.654;10.494;2024-01-07T08:45:04;90882.72;;;-0.60;85.60
85119;BME280;75469;47.654;10.494;2024-01-07T08:47:31;90880.84;;;-0.72;86.39
85119;BME280;75469;47.654;10.494;2024-01-07T08:49:57;90881.13;;;-0.74;86.39
85119;BME280;75469;47.654;10.494;2024-01-07T08:52:23;90880.69;;;-0.76;86.75
85119;BME280;75469;47.654;10.494;2024-01-07T08:54:49;90885.56;;;-0.74;86.32
85119;BME280;75469;47.654;10.494;2024-01-07T08:57:15;90883.44;;;-0.72;86.38
85119;BME280;75469;47.654;10.494;2024-01-07T08:59:40;90883.72;;;-0.74;85.98
85119;BME280;75469;47.654;10.494;2024-01-07T09:02:07;90884.50;;;-0.73;86.00
85119;BME280;75469;47.654;10.494;2024-01-07T09:04:32;90884.25;;;-0.80;86.71
85119;BME280;75469;47.654;10.494;2024-01-07T09:06:59;90905.47;;;-0.78;86.94
85119;BME280;75469;47.654;10.494;2024-01-07T09:09:24;90900.31;;;-0.87;86.73
85119;BME280;75469;47.654;10.494;2024-01-07T09:11:50;90897.06;;;-0.75;86.31
85119;BME280;75469;47.654;10.494;2024-01-07T09:14:17;90898.94;;;-0.63;86.04
85119;BME280;75469;47.654;10.494;2024-01-07T09:16:42;90902.91;;;-0.87;86.62
85119;BME280;75469;47.654;10.494;2024-01-07T09:19:08;90903.03;;;-0.83;86.94
85119;BME280;75469;47.654;10.494;2024-01-07T09:21:33;90913.72;;;-0.85;86.78
85119;BME280;75469;47.654;10.494;2024-01-07T09:23:59;90904.88;;;-0.84;86.86
85119;BME280;75469;47.654;10.494;2024-01-07T09:26:24;90902.78;;;-0.70;86.30
85119;BME280;75469;47.654;10.494;2024-01-07T09:28:50;90911.66;;;-0.71;86.38
85119;BME280;75469;47.654;10.494;2024-01-07T09:31:17;90918.38;;;-0.70;86.31
85119;BME280;75469;47.654;10.494;2024-01-07T09:33:42;90915.22;;;-0.54;85.51
85119;BME280;75469;47.654;10.494;2024-01-07T09:36:08;90912.69;;;-0.63;86.20
85119;BME280;75469;47.654;10.494;2024-01-07T09:38:34;90922.06;;;-0.71;86.27
85119;BME280;75469;47.654;10.494;2024-01-07T09:40:59;90914.38;;;-0.67;86.27
85119;BME280;75469;47.654;10.494;2024-01-07T09:43:25;90922.00;;;-0.41;85.13
85119;BME280;75469;47.654;10.494;2024-01-07T09:45:51;90918.19;;;-0.64;85.96
85119;BME280;75469;47.654;10.494;2024-01-07T09:48:18;90913.13;;;-0.61;85.72
85119;BME280;75469;47.654;10.494;2024-01-07T09:50:44;90917.25;;;-0.60;85.68
85119;BME280;75469;47.654;10.494;2024-01-07T09:53:15;90925.13;;;-0.48;84.92
85119;BME280;75469;47.654;10.494;2024-01-07T09:58:28;90926.31;;;-0.45;85.62
85119;BME280;75469;47.654;10.494;2024-01-07T10:00:54;90923.09;;;-0.21;84.00
85119;BME280;75469;47.654;10.494;2024-01-07T10:03:20;90917.75;;;-0.46;84.65
85119;BME280;75469;47.654;10.494;2024-01-07T10:05:45;90924.66;;;-0.71;85.31
85119;BME280;75469;47.654;10.494;2024-01-07T10:08:11;90918.06;;;-0.68;85.23
85119;BME280;75469;47.654;10.494;2024-01-07T10:10:37;90923.09;;;-0.63;85.54
85119;BME280;75469;47.654;10.494;2024-01-07T10:13:02;90922.31;;;-0.63;85.84
85119;BME280;75469;47.654;10.494;2024-01-07T10:15:28;90922.41;;;-0.51;84.77
85119;BME280;75469;47.654;10.494;2024-01-07T10:18:03;90932.00;;;-0.52;84.78
85119;BME280;75469;47.654;10.494;2024-01-07T10:20:31;90916.06;;;-0.62;85.35
85119;BME280;75469;47.654;10.494;2024-01-07T10:22:58;90923.00;;;-0.75;86.19
85119;BME280;75469;47.654;10.494;2024-01-07T10:25:23;90922.69;;;-0.74;86.04
85119;BME280;75469;47.654;10.494;2024-01-07T10:27:49;90927.78;;;-0.56;85.50
85119;BME280;75469;47.654;10.494;2024-01-07T10:30:18;90922.63;;;-0.65;85.89
85119;BME280;75469;47.654;10.494;2024-01-07T10:32:46;90927.72;;;-0.48;84.92
85119;BME280;75469;47.654;10.494;2024-01-07T10:35:13;90919.81;;;-0.51;84.82
85119;BME280;75469;47.654;10.494;2024-01-07T10:37:42;90929.03;;;-0.41;84.86
85119;BME280;75469;47.654;10.494;2024-01-07T10:40:11;90926.69;;;-0.55;85.46
85119;BME280;75469;47.654;10.494;2024-01-07T10:42:38;90921.75;;;-0.48;85.44
85119;BME280;75469;47.654;10.494;2024-01-07T10:45:04;90927.50;;;-0.42;84.60
85119;BME280;75469;47.654;10.494;2024-01-07T10:47:31;90928.41;;;-0.38;84.94
85119;BME280;75469;47.654;10.494;2024-01-07T10:49:58;90934.38;;;-0.38;84.69
85119;BME280;75469;47.654;10.494;2024-01-07T10:52:26;90928.41;;;-0.17;83.83
85119;BME280;75469;47.654;10.494;2024-01-07T10:54:53;90931.47;;;-0.03;83.74
85119;BME280;75469;47.654;10.494;2024-01-07T10:57:27;90925.78;;;0.04;82.33
85119;BME280;75469;47.654;10.494;2024-01-07T10:59:56;90927.19;;;-0.20;83.73
85119;BME280;75469;47.654;10.494;2024-01-07T11:02:23;90924.72;;;-0.37;84.30
85119;BME280;75469;47.654;10.494;2024-01-07T11:05:03;90919.59;;;-0.46;84.21
85119;BME280;75469;47.654;10.494;2024-01-07T11:07:38;90931.00;;;-0.59;85.16
85119;BME280;75469;47.654;10.494;2024-01-07T11:10:11;90920.81;;;-0.43;84.55
85119;BME280;75469;47.654;10.494;2024-01-07T11:12:39;90927.72;;;-0.48;84.94
85119;BME280;75469;47.654;10.494;2024-01-07T11:15:04;90924.53;;;-0.53;85.21
85119;BME280;75469;47.654;10.494;2024-01-07T11:20:04;90926.38;;;-0.54;84.75
85119;BME280;75469;47.654;10.494;2024-01-07T11:22:30;90929.34;;;-0.64;85.04
85119;BME280;75469;47.654;10.494;2024-01-07T11:25:00;90923.38;;;-0.64;84.71
85119;BME280;75469;47.654;10.494;2024-01-07T11:27:28;90920.25;;;-0.79;85.34
85119;BME280;75469;47.654;10.494;2024-01-07T11:32:28;90925.31;;;-0.82;85.24
85119;BME280;75469;47.654;10.494;2024-01-07T11:34:54;90929.13;;;-0.80;85.13
85119;BME280;75469;47.654;10.494;2024-01-07T11:37:22;90932.28;;;-0.95;86.11
85119;BME280;75469;47.654;10.494;2024-01-07T11:39:50;90925.13;;;-0.98;86.27
85119;BME280;75469;47.654;10.494;2024-01-07T11:42:16;90920.94;;;-0.90;85.37
85119;BME280;75469;47.654;10.494;2024-01-07T11:44:47;90922.28;;;-0.84;85.47
85119;BME280;75469;47.654;10.494;2024-01-07T11:47:15;90925.03;;;-1.10;88.92
85119;BME280;75469;47.654;10.494;2024-01-07T11:49:44;90927.63;;;-1.10;87.32
85119;BME280;75469;47.654;10.494;2024-01-07T11:52:10;90923.72;;;-1.25;87.09
85119;BME280;75469;47.654;10.494;2024-01-07T11:54:37;90918.91;;;-1.15;86.76
85119;BME280;75469;47.654;10.494;2024-01-07T11:57:04;90923.41;;;-1.24;87.07
85119;BME280;75469;47.654;10.494;2024-01-07T11:59:30;90921.00;;;-1.29;86.94
85119;BME280;75469;47.654;10.494;2024-01-07T12:01:55;90930.25;;;-1.19;86.76
85119;BME280;75469;47.654;10.494;2024-01-07T12:04:21;90929.03;;;-1.22;86.57
85119;BME280;75469;47.654;10.494;2024-01-07T12:06:48;90915.94;;;-1.25;86.71
85119;BME280;75469;47.654;10.494;2024-01-07T12:09:14;90929.53;;;-1.28;86.73
85119;BME280;75469;47.654;10.494;2024-01-07T12:11:40;90928.78;;;-1.29;86.86
85119;BME280;75469;47.654;10.494;2024-01-07T12:14:09;90925.56;;;-1.26;86.61
85119;BME280;75469;47.654;10.494;2024-01-07T12:16:36;90934.31;;;-1.09;85.75
85119;BME280;75469;47.654;10.494;2024-01-07T12:19:02;90931.22;;;-1.03;85.81
85119;BME280;75469;47.654;10.494;2024-01-07T12:21:27;90923.69;;;-1.17;86.12
85119;BME280;75469;47.654;10.494;2024-01-07T12:23:55;90938.88;;;-1.06;86.02
85119;BME280;75469;47.654;10.494;2024-01-07T12:26:25;90936.84;;;-0.92;85.12
85119;BME280;75469;47.654;10.494;2024-01-07T12:28:57;90932.19;;;-1.07;85.40
85119;BME280;75469;47.654;10.494;2024-01-07T12:31:28;90930.84;;;-1.13;85.51
85119;BME280;75469;47.654;10.494;2024-01-07T12:33:54;90934.81;;;-0.86;85.37
85119;BME280;75469;47.654;10.494;2024-01-07T12:36:23;90933.56;;;-1.10;85.54
85119;BME280;75469;47.654;10.494;2024-01-07T12:38:49;90929.09;;;-1.01;85.76
85119;BME280;75469;47.654;10.494;2024-01-07T12:41:17;90941.03;;;-1.08;86.03
85119;BME280;75469;47.654;10.494;2024-01-07T12:43:43;90939.50;;;-1.09;85.89
85119;BME280;75469;47.654;10.494;2024-01-07T12:46:08;90944.88;;;-1.15;86.47
85119;BME280;75469;47.654;10.494;2024-01-07T12:48:34;90951.31;;;-0.91;85.30
85119;BME280;75469;47.654;10.494;2024-01-07T12:51:00;90947.72;;;-0.99;85.18
85119;BME280;75469;47.654;10.494;2024-01-07T12:53:26;90958.41;;;-1.00;84.28
85119;BME280;75469;47.654;10.494;2024-01-07T12:55:52;90942.38;;;-1.32;85.02